aviador You're here:

KOAK Decoded Metar

OAKLAND in CA, USA
Report Time2018-05-23 16:18:00
UTC Time2018-05-23 16:46:49
Flight Rules mvfr MVFR
Wind240° at 08 kt
W.Decomp.*RWY 27: 5.6 kt HW 5.8 kt LCW
RWY 29: 3.3 kt HW 7.3 kt LCW
RWY 15: 2.2 kt HW 7.7 kt RCW
W.Rank240° ranks 8
Current wind is above 240° avg. (7.0)
Visibility9999 m
Phenomena:N/A
Clouds:Scattered 010 Hf
Overcast 022 Hf
Expected CloudBase > 1,600 ft AGL from Temp-Dew spread
Ceiling2,200 ft
Temp15°C (ISA 0)
Dew Point11°C (77% RH)
AAT12.4°C
QNH1015 hPa
Density Alt213 ft
Elevation85 ft
Report Wrong Elevation
Raw Report
KOAK 231618Z 24008KT 10SM SCT010 OVC022 15/11 A2996 RMK AO2
T01500111=

Extra information for KOAK:More info

Metar Taf Metar & Taf Last 4 Metars F.Rules Stats Wind Profile Meteogram Temp Stats Airport Information Weather charts Add Link Nearby VenuesMetar ALERT Operation Metar Decoded Social comments

AIRNAV info for KOAK